Time;durP1;ratioP1;P1;durP2;ratioP2;P2;SDS_P1;SDS_P2;PMS_P1;PMS_P2;Temp;Humidity;BMP_temperature;BMP_pressure;BME280_temperature;BME280_humidity;BME280_pressure;Samples;Min_cycle;Max_cycle;Signal;HPM_P1;HPM_P2
2022/01/06 00:02:04;;;;;;;29.15;10.52;;;;;;;;;;4992715;28;20422;-67
2022/01/06 00:04:29;;;;;;;29.85;10.07;;;;;;;;;;4993013;28;20026;-67
2022/01/06 00:06:54;;;;;;;29.70;10.55;;;;;;;;;;4991112;28;20072;-67
2022/01/06 00:09:21;;;;;;;33.03;12.90;;;;;;;;;;4993166;28;20507;-67
2022/01/06 00:11:46;;;;;;;29.33;10.18;;;;;;;;;;4992306;28;20010;-67
2022/01/06 00:14:36;;;;;;;31.50;10.30;;;;;;;;;;4992530;28;20053;-67
2022/01/06 00:17:19;;;;;;;;;;;;;;;;;;4982545;28;20534;-67
2022/01/06 00:25:12;;;;;;;29.02;9.25;;;;;;;;;;4991428;28;20061;-67
2022/01/06 00:27:38;;;;;;;34.80;9.23;;;;;;;;;;4992224;28;20431;-67
2022/01/06 00:30:03;;;;;;;37.55;9.65;;;;;;;;;;4991417;28;20027;-67
2022/01/06 00:32:28;;;;;;;32.65;9.02;;;;;;;;;;4992595;28;20101;-67
2022/01/06 00:34:53;;;;;;;32.55;9.35;;;;;;;;;;4990532;28;20022;-67
2022/01/06 00:37:19;;;;;;;35.40;8.13;;;;;;;;;;4992307;28;20030;-67
2022/01/06 00:39:44;;;;;;;28.10;8.05;;;;;;;;;;4991099;28;20277;-67
2022/01/06 00:42:09;;;;;;;29.48;8.60;;;;;;;;;;4991611;28;20041;-67
2022/01/06 00:44:34;;;;;;;33.35;8.65;;;;;;;;;;4991380;28;20555;-67
2022/01/06 00:46:59;;;;;;;31.63;8.32;;;;;;;;;;4991650;28;20033;-67
2022/01/06 00:49:25;;;;;;;31.35;7.53;;;;;;;;;;4990970;28;20034;-67
2022/01/06 00:51:50;;;;;;;43.45;8.15;;;;;;;;;;4992183;28;20022;-67
2022/01/06 00:54:15;;;;;;;33.47;6.57;;;;;;;;;;4990105;28;20548;-67
2022/01/06 00:56:40;;;;;;;36.38;7.45;;;;;;;;;;4991786;28;20386;-67
2022/01/06 00:59:06;;;;;;;30.63;8.43;;;;;;;;;;4990068;28;20026;-67
2022/01/06 01:01:32;;;;;;;35.08;8.75;;;;;;;;;;4991033;28;20146;-67
2022/01/06 01:03:57;;;;;;;31.48;7.25;;;;;;;;;;4989321;28;20117;-67
2022/01/06 01:06:23;;;;;;;23.10;5.78;;;;;;;;;;4990891;28;20153;-67
2022/01/06 01:08:48;;;;;;;36.22;6.97;;;;;;;;;;4989561;28;20069;-67
2022/01/06 01:11:13;;;;;;;32.33;6.82;;;;;;;;;;4991408;28;20680;-67
2022/01/06 01:13:54;;;;;;;31.15;6.75;;;;;;;;;;4991282;28;20027;-67
2022/01/06 01:16:23;;;;;;;33.97;7.47;;;;;;;;;;4990933;28;20034;-67
2022/01/06 01:18:49;;;;;;;39.20;7.45;;;;;;;;;;4990218;28;20026;-67
2022/01/06 01:21:15;;;;;;;23.75;6.03;;;;;;;;;;4991668;28;20248;-67
2022/01/06 01:23:40;;;;;;;29.48;6.72;;;;;;;;;;4991145;28;20379;-67
2022/01/06 01:26:05;;;;;;;32.90;5.70;;;;;;;;;;4991197;28;20435;-67
2022/01/06 01:28:41;;;;;;;30.25;5.28;;;;;;;;;;4991379;28;20019;-67
2022/01/06 01:31:25;;;;;;;29.40;5.35;;;;;;;;;;4990201;28;20101;-67
2022/01/06 01:33:52;;;;;;;26.02;4.57;;;;;;;;;;4991063;28;20066;-67
2022/01/06 01:36:17;;;;;;;19.13;4.53;;;;;;;;;;4989836;28;20023;-67
2022/01/06 01:38:43;;;;;;;25.15;5.65;;;;;;;;;;4991176;28;20022;-67
2022/01/06 01:41:08;;;;;;;29.27;4.07;;;;;;;;;;4989528;28;20033;-67
2022/01/06 01:43:34;;;;;;;28.17;5.20;;;;;;;;;;4991355;28;20199;-67
2022/01/06 01:46:08;;;;;;;23.00;4.55;;;;;;;;;;4988344;28;20062;-67
2022/01/06 01:48:36;;;;;;;25.35;5.50;;;;;;;;;;4990625;28;20463;-67
2022/01/06 01:51:01;;;;;;;23.77;6.45;;;;;;;;;;4990593;28;20030;-67
2022/01/06 01:53:26;;;;;;;38.10;5.97;;;;;;;;;;4990739;28;20026;-67
2022/01/06 01:55:51;;;;;;;34.33;4.78;;;;;;;;;;5008748;28;20021;-67
2022/01/06 01:58:17;;;;;;;25.73;5.70;;;;;;;;;;4991839;28;20330;-67
2022/01/06 02:00:43;;;;;;;38.85;6.45;;;;;;;;;;4990153;28;20513;-67
2022/01/06 02:03:08;;;;;;;17.48;3.58;;;;;;;;;;4990525;28;20029;-67
2022/01/06 02:05:33;;;;;;;28.08;5.05;;;;;;;;;;4990683;28;20022;-67
2022/01/06 02:07:59;;;;;;;34.58;4.65;;;;;;;;;;4989944;28;20026;-67
2022/01/06 02:10:24;;;;;;;25.77;4.65;;;;;;;;;;4990003;28;20026;-67
2022/01/06 02:12:52;;;;;;;36.92;6.38;;;;;;;;;;4990642;28;20493;-67
2022/01/06 02:15:18;;;;;;;23.67;5.25;;;;;;;;;;4988344;28;20500;-67
2022/01/06 02:17:44;;;;;;;21.20;4.03;;;;;;;;;;4990567;28;20058;-67
2022/01/06 02:20:10;;;;;;;26.98;4.88;;;;;;;;;;4988640;28;20057;-67
2022/01/06 02:22:35;;;;;;;24.58;4.82;;;;;;;;;;4989294;28;20022;-67
2022/01/06 02:25:10;;;;;;;29.10;4.20;;;;;;;;;;4990699;28;20027;-67
2022/01/06 02:27:35;;;;;;;22.08;4.47;;;;;;;;;;4994273;28;20018;-67
2022/01/06 02:30:00;;;;;;;35.08;5.07;;;;;;;;;;5010913;28;20076;-67
2022/01/06 02:32:25;;;;;;;25.80;4.30;;;;;;;;;;4989368;28;20018;-67
2022/01/06 02:34:51;;;;;;;34.72;3.65;;;;;;;;;;4990720;28;20027;-67
2022/01/06 02:37:17;;;;;;;23.88;3.67;;;;;;;;;;4989156;28;20030;-67
2022/01/06 02:39:42;;;;;;;22.50;3.85;;;;;;;;;;4990886;28;20023;-67
2022/01/06 02:42:08;;;;;;;30.55;3.72;;;;;;;;;;4988533;28;20030;-67
2022/01/06 02:44:34;;;;;;;22.20;5.20;;;;;;;;;;5005525;28;20033;-67
2022/01/06 02:46:59;;;;;;;29.23;4.03;;;;;;;;;;4988639;28;20019;-67
2022/01/06 02:49:24;;;;;;;34.73;6.00;;;;;;;;;;4990037;28;20093;-67
2022/01/06 02:51:51;;;;;;;18.65;2.78;;;;;;;;;;4990232;28;20265;-67
2022/01/06 02:54:16;;;;;;;24.45;6.10;;;;;;;;;;4988150;28;20039;-67
2022/01/06 02:56:43;;;;;;;24.05;3.63;;;;;;;;;;4989558;28;20030;-67
2022/01/06 02:59:08;;;;;;;25.60;5.03;;;;;;;;;;4988584;28;20033;-67
2022/01/06 03:01:41;;;;;;;21.98;3.40;;;;;;;;;;4990466;28;20414;-67
2022/01/06 03:04:06;;;;;;;18.50;3.63;;;;;;;;;;4987825;28;20080;-67
2022/01/06 03:06:31;;;;;;;23.67;2.97;;;;;;;;;;4990020;28;20455;-67
2022/01/06 03:08:57;;;;;;;24.48;2.90;;;;;;;;;;5032588;23;20412;-67
2022/01/06 03:11:25;;;;;;;29.20;3.05;;;;;;;;;;5027974;28;20451;-67
2022/01/06 03:13:51;;;;;;;15.48;3.38;;;;;;;;;;5029468;28;20086;-67
2022/01/06 03:16:16;;;;;;;21.42;3.83;;;;;;;;;;5028746;28;20487;-67
2022/01/06 03:18:42;;;;;;;26.08;3.67;;;;;;;;;;5013203;28;20486;-67
2022/01/06 03:21:07;;;;;;;32.80;4.13;;;;;;;;;;5008934;28;20017;-67
2022/01/06 03:23:32;;;;;;;33.30;3.78;;;;;;;;;;5009017;28;20387;-67
2022/01/06 03:25:57;;;;;;;24.33;3.40;;;;;;;;;;5009548;28;20045;-67
2022/01/06 03:28:22;;;;;;;29.60;3.37;;;;;;;;;;5008384;28;20029;-67
2022/01/06 03:30:48;;;;;;;21.70;3.80;;;;;;;;;;5008631;28;20269;-67
2022/01/06 03:33:13;;;;;;;32.75;4.05;;;;;;;;;;5011910;28;20046;-67
2022/01/06 03:35:38;;;;;;;24.40;4.28;;;;;;;;;;5012173;28;20034;-67
2022/01/06 03:38:03;;;;;;;24.02;3.20;;;;;;;;;;5010431;28;20030;-67
2022/01/06 03:40:28;;;;;;;27.33;5.07;;;;;;;;;;5011445;28;20100;-67
2022/01/06 03:42:54;;;;;;;22.25;3.03;;;;;;;;;;5011646;28;20029;-67
2022/01/06 03:45:19;;;;;;;22.38;2.40;;;;;;;;;;5010808;28;20045;-67
2022/01/06 03:47:44;;;;;;;21.73;2.90;;;;;;;;;;5011581;28;20018;-67
2022/01/06 03:50:11;;;;;;;13.85;3.45;;;;;;;;;;5013166;28;20020;-67
2022/01/06 03:52:37;;;;;;;32.75;3.50;;;;;;;;;;5012542;28;20029;-67
2022/01/06 03:55:03;;;;;;;26.52;3.80;;;;;;;;;;5011339;28;20026;-67
2022/01/06 03:57:28;;;;;;;34.53;4.13;;;;;;;;;;5012155;28;20496;-67
2022/01/06 03:59:54;;;;;;;20.55;3.53;;;;;;;;;;5013198;28;20030;-67
2022/01/06 04:02:19;;;;;;;30.88;4.07;;;;;;;;;;5011314;28;20030;-67
2022/01/06 04:04:44;;;;;;;23.75;4.68;;;;;;;;;;5012288;28;20028;-67
2022/01/06 04:07:09;;;;;;;45.05;3.90;;;;;;;;;;5011269;28;20026;-67
2022/01/06 04:09:34;;;;;;;23.27;3.53;;;;;;;;;;5010789;28;20033;-67
2022/01/06 04:12:00;;;;;;;28.48;3.78;;;;;;;;;;5012267;28;20026;-67
2022/01/06 04:14:25;;;;;;;24.70;3.13;;;;;;;;;;5012097;28;20385;-67
2022/01/06 04:16:57;;;;;;;34.03;4.15;;;;;;;;;;5011579;28;20165;-67
2022/01/06 04:19:22;;;;;;;40.88;5.13;;;;;;;;;;4993016;28;20022;-67
2022/01/06 04:21:48;;;;;;;45.85;5.85;;;;;;;;;;5004948;28;20026;-67
2022/01/06 04:24:13;;;;;;;26.83;4.20;;;;;;;;;;5012187;28;20049;-67
2022/01/06 04:26:38;;;;;;;30.73;5.32;;;;;;;;;;5010323;28;20767;-67
2022/01/06 04:29:03;;;;;;;26.20;4.47;;;;;;;;;;5008810;28;20037;-66
2022/01/06 04:31:28;;;;;;;22.77;3.97;;;;;;;;;;5011589;28;20702;-67
2022/01/06 04:33:53;;;;;;;35.10;5.23;;;;;;;;;;5009640;28;20030;-66
2022/01/06 04:36:20;;;;;;;29.58;6.78;;;;;;;;;;5011974;28;20281;-67
2022/01/06 04:38:45;;;;;;;22.20;3.30;;;;;;;;;;5009705;28;20029;-67
2022/01/06 04:41:10;;;;;;;24.93;3.90;;;;;;;;;;5011833;28;20022;-67
2022/01/06 04:43:35;;;;;;;22.50;5.18;;;;;;;;;;5009376;28;20296;-67
2022/01/06 04:46:01;;;;;;;39.55;5.20;;;;;;;;;;5011900;28;20029;-67
2022/01/06 04:48:26;;;;;;;28.88;4.40;;;;;;;;;;5009709;28;20498;-66
2022/01/06 04:50:51;;;;;;;19.40;4.20;;;;;;;;;;5010270;28;20017;-67
2022/01/06 04:53:16;;;;;;;25.00;4.05;;;;;;;;;;5009461;28;20092;-67
2022/01/06 04:55:41;;;;;;;36.65;5.80;;;;;;;;;;5011023;28;20033;-67
2022/01/06 04:58:07;;;;;;;26.85;4.82;;;;;;;;;;5010364;28;20056;-67
2022/01/06 05:00:32;;;;;;;25.15;6.10;;;;;;;;;;5009825;28;20018;-67
2022/01/06 05:02:57;;;;;;;36.72;5.88;;;;;;;;;;5011253;28;20061;-67
2022/01/06 05:05:22;;;;;;;42.03;5.13;;;;;;;;;;5011005;28;20474;-67
2022/01/06 05:07:47;;;;;;;24.40;5.32;;;;;;;;;;5011072;28;20115;-67
2022/01/06 05:10:13;;;;;;;23.08;4.63;;;;;;;;;;5011565;28;20148;-67
2022/01/06 05:12:42;;;;;;;20.92;4.95;;;;;;;;;;5008728;28;20024;-67
2022/01/06 05:15:08;;;;;;;34.10;5.53;;;;;;;;;;5010337;28;20084;-65
2022/01/06 05:17:33;;;;;;;35.65;5.78;;;;;;;;;;5010779;28;20053;-65
2022/01/06 05:19:58;;;;;;;32.95;5.07;;;;;;;;;;5010599;28;20175;-65
2022/01/06 05:22:23;;;;;;;29.50;4.37;;;;;;;;;;5011438;28;20057;-65
2022/01/06 05:24:49;;;;;;;26.95;4.90;;;;;;;;;;5009779;28;20296;-64
2022/01/06 05:27:14;;;;;;;25.63;4.88;;;;;;;;;;5010761;28;20030;-64
2022/01/06 05:29:39;;;;;;;33.88;5.78;;;;;;;;;;5010833;28;20029;-64
2022/01/06 05:32:04;;;;;;;24.08;5.32;;;;;;;;;;5010488;28;20029;-64
2022/01/06 05:34:30;;;;;;;28.77;5.97;;;;;;;;;;5010284;28;20025;-65
2022/01/06 05:36:55;;;;;;;28.02;5.45;;;;;;;;;;5010305;28;20025;-68
2022/01/06 05:39:20;;;;;;;39.45;6.78;;;;;;;;;;5010776;28;20057;-65
2022/01/06 05:41:46;;;;;;;22.17;5.32;;;;;;;;;;5010139;28;20075;-65
2022/01/06 05:44:11;;;;;;;27.88;7.30;;;;;;;;;;5010971;28;20059;-65
2022/01/06 05:46:37;;;;;;;24.10;4.63;;;;;;;;;;5009680;28;20087;-65
2022/01/06 05:49:02;;;;;;;29.15;5.28;;;;;;;;;;5010815;28;20065;-65
2022/01/06 05:51:27;;;;;;;30.70;7.55;;;;;;;;;;5010347;28;20024;-65
2022/01/06 05:53:53;;;;;;;32.58;5.03;;;;;;;;;;5010550;28;20026;-65
2022/01/06 05:56:19;;;;;;;34.83;6.82;;;;;;;;;;5009440;28;20022;-65
2022/01/06 05:58:44;;;;;;;32.22;5.65;;;;;;;;;;5010488;28;20037;-65
2022/01/06 06:01:09;;;;;;;25.27;4.45;;;;;;;;;;5009686;28;20025;-65
2022/01/06 06:03:35;;;;;;;26.38;5.30;;;;;;;;;;5004772;28;20033;-65
2022/01/06 06:06:00;;;;;;;34.70;4.78;;;;;;;;;;4995106;28;20025;-65
2022/01/06 06:08:25;;;;;;;26.17;5.13;;;;;;;;;;5010066;28;20120;-65
2022/01/06 06:10:50;;;;;;;38.58;5.60;;;;;;;;;;5008554;28;20017;-64
2022/01/06 06:13:16;;;;;;;32.75;4.53;;;;;;;;;;5010258;28;20076;-65
2022/01/06 06:15:41;;;;;;;21.15;5.68;;;;;;;;;;5009529;28;20026;-65
2022/01/06 06:18:07;;;;;;;30.27;5.88;;;;;;;;;;5010611;28;20068;-65
2022/01/06 06:20:32;;;;;;;33.50;5.15;;;;;;;;;;5008899;28;20025;-65
2022/01/06 06:22:58;;;;;;;36.53;5.90;;;;;;;;;;5009150;28;20057;-65
2022/01/06 06:25:24;;;;;;;20.33;4.90;;;;;;;;;;5010084;28;20088;-64
2022/01/06 06:27:49;;;;;;;28.88;4.38;;;;;;;;;;5010165;28;20101;-64
2022/01/06 06:30:14;;;;;;;26.00;4.83;;;;;;;;;;5010704;28;20014;-65
2022/01/06 06:32:39;;;;;;;34.65;5.70;;;;;;;;;;5010599;28;20675;-65
2022/01/06 06:35:05;;;;;;;27.10;6.85;;;;;;;;;;5009229;28;20441;-65
2022/01/06 06:37:30;;;;;;;27.17;5.00;;;;;;;;;;5009431;28;20022;-65
2022/01/06 06:39:57;;;;;;;36.90;7.05;;;;;;;;;;5009276;28;20088;-65
2022/01/06 06:42:22;;;;;;;29.83;5.63;;;;;;;;;;5010199;28;20425;-65
2022/01/06 06:44:48;;;;;;;27.70;5.85;;;;;;;;;;5009594;28;20018;-65
2022/01/06 06:47:13;;;;;;;27.75;4.63;;;;;;;;;;5010332;28;20014;-65
2022/01/06 06:49:38;;;;;;;32.20;5.35;;;;;;;;;;5008927;28;20034;-65
2022/01/06 06:52:04;;;;;;;27.42;4.93;;;;;;;;;;5009390;28;20049;-65
2022/01/06 06:54:29;;;;;;;21.75;5.50;;;;;;;;;;5009087;28;20026;-65
2022/01/06 06:56:54;;;;;;;21.95;5.13;;;;;;;;;;5010589;28;20100;-65
2022/01/06 06:59:19;;;;;;;23.00;4.13;;;;;;;;;;5008572;28;20164;-65
2022/01/06 07:01:45;;;;;;;37.65;5.13;;;;;;;;;;5009815;28;20530;-65
2022/01/06 07:04:10;;;;;;;28.23;5.05;;;;;;;;;;5008491;28;20537;-65
2022/01/06 07:06:35;;;;;;;12.30;4.20;;;;;;;;;;5003753;28;20458;-65
2022/01/06 07:09:00;;;;;;;25.52;6.10;;;;;;;;;;5012655;28;20033;-65
2022/01/06 07:11:26;;;;;;;29.98;7.35;;;;;;;;;;5013276;28;20104;-65
2022/01/06 07:13:51;;;;;;;24.35;5.70;;;;;;;;;;5013063;28;20053;-65
2022/01/06 07:16:16;;;;;;;19.20;5.30;;;;;;;;;;5013786;28;20037;-65
2022/01/06 07:18:41;;;;;;;24.40;5.18;;;;;;;;;;5012010;28;20022;-65
2022/01/06 07:21:07;;;;;;;26.48;4.47;;;;;;;;;;5013508;28;20034;-65
2022/01/06 07:23:32;;;;;;;25.08;4.97;;;;;;;;;;5011762;28;20030;-65
2022/01/06 07:25:57;;;;;;;34.17;5.23;;;;;;;;;;5012150;28;20109;-65
2022/01/06 07:28:22;;;;;;;24.45;5.43;;;;;;;;;;5011291;28;20269;-65
2022/01/06 07:30:47;;;;;;;28.17;5.70;;;;;;;;;;5011952;28;20471;-65
2022/01/06 07:33:12;;;;;;;21.08;5.55;;;;;;;;;;5012607;28;20018;-67
2022/01/06 07:35:38;;;;;;;33.70;5.28;;;;;;;;;;5013074;28;20014;-67
2022/01/06 07:38:03;;;;;;;22.42;4.68;;;;;;;;;;5013061;28;20467;-67
2022/01/06 07:40:28;;;;;;;29.83;6.20;;;;;;;;;;5012868;28;20022;-65
2022/01/06 07:42:53;;;;;;;18.40;4.65;;;;;;;;;;5013428;28;20018;-65
2022/01/06 07:45:19;;;;;;;24.70;5.35;;;;;;;;;;5013466;28;20470;-65
2022/01/06 07:48:15;;;;;;;30.63;5.15;;;;;;;;;;5011841;28;20053;-64
2022/01/06 07:50:31;;;;;;;25.17;5.45;;;;;;;;;;5012793;28;20058;-65
2022/01/06 07:52:56;;;;;;;32.03;4.90;;;;;;;;;;5012185;28;20022;-65
2022/01/06 07:55:22;;;;;;;28.92;5.68;;;;;;;;;;5013106;28;20029;-66
2022/01/06 07:57:47;;;;;;;30.38;5.53;;;;;;;;;;5012422;28;20096;-64
2022/01/06 08:00:13;;;;;;;22.17;5.32;;;;;;;;;;5013429;28;20614;-64
2022/01/06 08:02:38;;;;;;;36.53;5.78;;;;;;;;;;5011945;28;20570;-65
2022/01/06 08:05:03;;;;;;;33.85;6.38;;;;;;;;;;5011392;28;20030;-65
2022/01/06 08:07:28;;;;;;;20.48;5.55;;;;;;;;;;5012064;28;20423;-65
2022/01/06 08:09:55;;;;;;;32.58;6.47;;;;;;;;;;5012824;28;20129;-65
2022/01/06 08:12:20;;;;;;;29.15;6.30;;;;;;;;;;5012983;28;20101;-65
2022/01/06 08:14:45;;;;;;;27.70;7.57;;;;;;;;;;5012488;28;20467;-65
2022/01/06 08:17:10;;;;;;;22.88;7.13;;;;;;;;;;5011511;28;20025;-65
2022/01/06 08:19:36;;;;;;;27.50;7.38;;;;;;;;;;5012105;28;20030;-67
2022/01/06 08:22:01;;;;;;;26.50;7.25;;;;;;;;;;5012858;28;20646;-64
2022/01/06 08:24:26;;;;;;;23.80;6.22;;;;;;;;;;5012994;28;20030;-65
2022/01/06 08:26:51;;;;;;;50.83;7.35;;;;;;;;;;5012892;28;20467;-65
2022/01/06 08:29:16;;;;;;;28.35;7.30;;;;;;;;;;5012572;28;20415;-65
2022/01/06 08:31:42;;;;;;;28.00;6.83;;;;;;;;;;5012756;28;20068;-64
2022/01/06 08:34:07;;;;;;;20.58;5.88;;;;;;;;;;5012580;28;20304;-65
2022/01/06 08:36:32;;;;;;;21.38;6.35;;;;;;;;;;5012533;28;20018;-64
2022/01/06 08:38:57;;;;;;;33.13;7.32;;;;;;;;;;5012243;28;20025;-65
2022/01/06 08:41:22;;;;;;;23.35;5.82;;;;;;;;;;4992674;28;20061;-65
2022/01/06 08:43:48;;;;;;;33.00;7.50;;;;;;;;;;4992990;28;20439;-66
2022/01/06 08:46:13;;;;;;;23.17;7.60;;;;;;;;;;5006873;28;20021;-65
2022/01/06 08:48:38;;;;;;;20.90;6.72;;;;;;;;;;5011137;28;20018;-65
2022/01/06 08:51:03;;;;;;;28.27;8.35;;;;;;;;;;5012030;28;20026;-65
2022/01/06 08:53:28;;;;;;;29.17;6.77;;;;;;;;;;5012137;28;20033;-65
2022/01/06 08:55:54;;;;;;;27.08;7.22;;;;;;;;;;5012231;28;20253;-65
2022/01/06 08:58:19;;;;;;;21.48;6.70;;;;;;;;;;5011920;28;20022;-65
2022/01/06 09:00:44;;;;;;;21.42;6.47;;;;;;;;;;5011587;28;20017;-64
2022/01/06 09:03:10;;;;;;;21.52;6.88;;;;;;;;;;5011776;28;20030;-65
2022/01/06 09:05:40;;;;;;;24.02;6.30;;;;;;;;;;5012324;28;20049;-65
2022/01/06 09:08:05;;;;;;;23.20;7.05;;;;;;;;;;5012320;28;20028;-68
2022/01/06 09:10:33;;;;;;;28.10;6.85;;;;;;;;;;5011882;28;20401;-65
2022/01/06 09:12:58;;;;;;;29.98;7.50;;;;;;;;;;5011682;28;20100;-66
2022/01/06 09:15:23;;;;;;;19.95;6.80;;;;;;;;;;5011802;28;20101;-67
2022/01/06 09:17:49;;;;;;;18.23;6.03;;;;;;;;;;5011311;28;20498;-65
2022/01/06 09:20:14;;;;;;;31.48;6.72;;;;;;;;;;5011835;28;20496;-67
2022/01/06 09:22:40;;;;;;;21.42;6.30;;;;;;;;;;5011114;28;20025;-66
2022/01/06 09:25:05;;;;;;;22.20;5.97;;;;;;;;;;5011746;28;20080;-67
2022/01/06 09:27:31;;;;;;;22.88;7.20;;;;;;;;;;5011249;28;20014;-67
2022/01/06 09:29:56;;;;;;;32.15;6.75;;;;;;;;;;5010967;28;20493;-66
2022/01/06 09:32:21;;;;;;;24.50;7.30;;;;;;;;;;5011236;28;20014;-68
2022/01/06 09:34:47;;;;;;;30.10;8.07;;;;;;;;;;5011480;28;20495;-66
2022/01/06 09:37:12;;;;;;;29.63;8.48;;;;;;;;;;5011043;28;20037;-67
2022/01/06 09:39:38;;;;;;;26.70;7.40;;;;;;;;;;5011064;28;20025;-67
2022/01/06 09:42:04;;;;;;;28.65;6.93;;;;;;;;;;5011073;28;20025;-66
2022/01/06 09:44:29;;;;;;;32.63;6.57;;;;;;;;;;5011233;28;20167;-65
2022/01/06 09:46:57;;;;;;;35.65;7.63;;;;;;;;;;5011469;28;20101;-65
2022/01/06 09:49:23;;;;;;;24.63;7.32;;;;;;;;;;5011037;28;20094;-65
2022/01/06 09:51:48;;;;;;;33.78;7.63;;;;;;;;;;5010514;28;20117;-65
2022/01/06 09:54:13;;;;;;;27.10;8.13;;;;;;;;;;5011223;28;20080;-65
2022/01/06 09:56:39;;;;;;;29.15;7.45;;;;;;;;;;5011050;28;20025;-65
2022/01/06 09:59:04;;;;;;;29.00;7.78;;;;;;;;;;5010745;28;20108;-65
2022/01/06 10:01:29;;;;;;;30.08;7.22;;;;;;;;;;5010693;28;20502;-65
2022/01/06 10:03:54;;;;;;;27.05;8.20;;;;;;;;;;5010987;28;20025;-65
2022/01/06 10:06:21;;;;;;;24.75;7.28;;;;;;;;;;5010669;28;20034;-65
2022/01/06 10:08:50;;;;;;;22.88;7.88;;;;;;;;;;5010613;28;20494;-65
2022/01/06 10:11:20;;;;;;;35.20;7.53;;;;;;;;;;5010846;28;20088;-65
2022/01/06 10:13:53;;;;;;;29.08;8.02;;;;;;;;;;5010735;28;20030;-65
2022/01/06 10:16:18;;;;;;;30.67;7.22;;;;;;;;;;5010904;28;20506;-65
2022/01/06 10:18:57;;;;;;;38.20;8.13;;;;;;;;;;5010489;28;20033;-65
2022/01/06 10:21:23;;;;;;;20.85;6.65;;;;;;;;;;5010561;28;20552;-65
2022/01/06 10:24:00;;;;;;;25.45;7.85;;;;;;;;;;5010846;28;20018;-67
2022/01/06 10:26:25;;;;;;;38.20;8.57;;;;;;;;;;5010001;28;20662;-65
2022/01/06 10:28:50;;;;;;;46.15;8.55;;;;;;;;;;5010220;28;20030;-65
2022/01/06 10:31:18;;;;;;;31.60;9.43;;;;;;;;;;5010906;28;20049;-65
2022/01/06 10:33:43;;;;;;;34.38;8.40;;;;;;;;;;5010464;28;20053;-65
2022/01/06 10:36:08;;;;;;;35.70;8.80;;;;;;;;;;5008946;28;20033;-65
2022/01/06 10:38:34;;;;;;;32.83;9.45;;;;;;;;;;5010338;28;20264;-65
2022/01/06 10:41:12;;;;;;;35.10;8.93;;;;;;;;;;5010900;28;20022;-65
2022/01/06 10:43:38;;;;;;;45.67;9.43;;;;;;;;;;5011721;28;20657;-65
2022/01/06 10:46:03;;;;;;;37.20;8.88;;;;;;;;;;5012626;28;20104;-65
2022/01/06 10:48:29;;;;;;;26.38;9.65;;;;;;;;;;5011974;28;20018;-65
2022/01/06 10:50:58;;;;;;;34.10;8.98;;;;;;;;;;5013518;28;20022;-65
2022/01/06 10:53:23;;;;;;;30.15;9.02;;;;;;;;;;5011904;28;20022;-65
2022/01/06 10:55:48;;;;;;;39.55;9.55;;;;;;;;;;5013608;28;20387;-65
2022/01/06 10:58:17;;;;;;;45.30;10.38;;;;;;;;;;5013223;28;20021;-65
2022/01/06 11:00:45;;;;;;;32.17;10.87;;;;;;;;;;5013167;28;20030;-65
2022/01/06 11:03:14;;;;;;;39.00;13.05;;;;;;;;;;5013715;28;20053;-65
2022/01/06 11:05:41;;;;;;;56.28;13.07;;;;;;;;;;5013838;28;20025;-65
2022/01/06 11:08:07;;;;;;;48.50;15.40;;;;;;;;;;5010620;28;20048;-65
2022/01/06 11:10:35;;;;;;;37.05;13.55;;;;;;;;;;5012645;28;20026;-65
2022/01/06 11:13:01;;;;;;;40.13;12.32;;;;;;;;;;5014259;28;20548;-65
2022/01/06 11:15:26;;;;;;;37.30;12.18;;;;;;;;;;5010949;28;20026;-65
2022/01/06 11:17:52;;;;;;;41.75;13.25;;;;;;;;;;5010771;28;20105;-65
2022/01/06 11:20:24;;;;;;;43.05;14.95;;;;;;;;;;5014018;28;20029;-65
2022/01/06 11:22:52;;;;;;;47.78;13.75;;;;;;;;;;5012238;28;20441;-65
2022/01/06 11:25:27;;;;;;;34.97;13.70;;;;;;;;;;5013555;28;20467;-65
2022/01/06 11:27:59;;;;;;;48.03;13.10;;;;;;;;;;5013547;28;20025;-65
2022/01/06 11:30:24;;;;;;;36.33;13.77;;;;;;;;;;5013548;28;20076;-65
2022/01/06 11:32:57;;;;;;;54.17;12.83;;;;;;;;;;5013539;28;20422;-65
2022/01/06 11:35:22;;;;;;;44.47;12.95;;;;;;;;;;5013137;28;20318;-65
2022/01/06 11:37:49;;;;;;;49.83;13.00;;;;;;;;;;5012996;28;20104;-65
2022/01/06 11:40:15;;;;;;;41.83;14.82;;;;;;;;;;5013393;28;20082;-65
2022/01/06 11:42:41;;;;;;;45.75;15.63;;;;;;;;;;5013302;28;20036;-65
2022/01/06 11:45:06;;;;;;;47.45;14.52;;;;;;;;;;5013403;28;20387;-64
2022/01/06 11:47:36;;;;;;;40.50;14.13;;;;;;;;;;5012992;28;20072;-65
2022/01/06 11:50:18;;;;;;;44.40;14.88;;;;;;;;;;5012622;28;20053;-65
2022/01/06 11:52:54;;;;;;;42.42;13.98;;;;;;;;;;5012766;28;20037;-65
2022/01/06 11:55:19;;;;;;;35.35;12.73;;;;;;;;;;5011672;28;20038;-65
2022/01/06 11:57:45;;;;;;;50.40;18.30;;;;;;;;;;5012721;28;20026;-65
2022/01/06 12:00:18;;;;;;;48.08;14.13;;;;;;;;;;5012859;28;20033;-65
2022/01/06 12:02:43;;;;;;;39.08;14.07;;;;;;;;;;5013000;28;20022;-65
2022/01/06 12:05:09;;;;;;;46.20;14.57;;;;;;;;;;5011758;28;20032;-65
2022/01/06 12:07:34;;;;;;;37.83;9.52;;;;;;;;;;5012088;28;20487;-65
2022/01/06 12:10:09;;;;;;;29.42;10.90;;;;;;;;;;5012891;28;20021;-65
2022/01/06 12:12:35;;;;;;;38.40;12.52;;;;;;;;;;5013086;28;20084;-65
2022/01/06 12:15:16;;;;;;;33.33;13.55;;;;;;;;;;5013149;28;20437;-65
2022/01/06 12:17:48;;;;;;;34.20;12.05;;;;;;;;;;5012536;28;20634;-64
2022/01/06 12:20:21;;;;;;;37.88;11.68;;;;;;;;;;5012866;28;20030;-65
2022/01/06 12:22:46;;;;;;;33.10;11.32;;;;;;;;;;5012408;28;20036;-65
2022/01/06 12:25:11;;;;;;;27.63;10.00;;;;;;;;;;5012652;28;20475;-65
2022/01/06 12:27:48;;;;;;;30.92;8.02;;;;;;;;;;5012190;28;20025;-65
2022/01/06 12:30:14;;;;;;;34.65;11.55;;;;;;;;;;5011456;28;20021;-65
2022/01/06 12:32:39;;;;;;;27.13;10.35;;;;;;;;;;5012034;28;20036;-65
2022/01/06 12:35:04;;;;;;;51.50;10.20;;;;;;;;;;5010508;28;20034;-65
2022/01/06 12:37:30;;;;;;;34.85;10.07;;;;;;;;;;5010653;28;20054;-65
2022/01/06 12:39:56;;;;;;;25.88;9.38;;;;;;;;;;5011588;28;20026;-65
2022/01/06 12:42:21;;;;;;;44.47;9.35;;;;;;;;;;5011788;28;20029;-65
2022/01/06 12:44:47;;;;;;;34.47;10.02;;;;;;;;;;5012389;28;20037;-65
2022/01/06 12:47:12;;;;;;;27.15;8.95;;;;;;;;;;5011890;28;20490;-65
2022/01/06 12:49:37;;;;;;;35.40;8.45;;;;;;;;;;5011676;28;20030;-65
2022/01/06 12:52:03;;;;;;;31.35;9.25;;;;;;;;;;5010803;28;20028;-65
2022/01/06 12:54:30;;;;;;;34.30;8.88;;;;;;;;;;5011602;28;20050;-65
2022/01/06 12:56:56;;;;;;;37.25;8.75;;;;;;;;;;5011702;28;20072;-65
2022/01/06 12:59:32;;;;;;;32.17;9.38;;;;;;;;;;5011449;28;20044;-65
2022/01/06 13:01:58;;;;;;;31.67;7.50;;;;;;;;;;5011170;28;20026;-65
2022/01/06 13:04:27;;;;;;;48.15;8.50;;;;;;;;;;5011137;28;20025;-65
2022/01/06 13:06:57;;;;;;;29.35;8.70;;;;;;;;;;5011393;28;20030;-67
2022/01/06 13:09:23;;;;;;;34.90;9.10;;;;;;;;;;5011377;28;20021;-65
2022/01/06 13:11:52;;;;;;;42.58;8.77;;;;;;;;;;5011514;28;20022;-65
2022/01/06 13:14:43;;;;;;;32.22;8.32;;;;;;;;;;5011314;28;20029;-65
2022/01/06 13:17:31;;;;;;;30.83;7.65;;;;;;;;;;4995818;28;20518;-65
2022/01/06 13:19:59;;;;;;;31.15;9.10;;;;;;;;;;5011305;28;20026;-65
2022/01/06 13:23:12;;;;;;;35.42;8.30;;;;;;;;;;5010948;28;20032;-65
2022/01/06 13:25:33;;;;;;;36.10;8.45;;;;;;;;;;4991496;28;20029;-65
2022/01/06 13:28:03;;;;;;;40.97;8.68;;;;;;;;;;5004056;28;20026;-65
2022/01/06 13:30:33;;;;;;;45.05;9.23;;;;;;;;;;5011469;28;20022;-65
2022/01/06 13:32:58;;;;;;;34.22;9.65;;;;;;;;;;5010867;28;20030;-65
2022/01/06 13:35:24;;;;;;;40.67;8.60;;;;;;;;;;5011017;28;20037;-65
2022/01/06 13:37:49;;;;;;;36.28;8.57;;;;;;;;;;5010371;28;20014;-65
2022/01/06 13:40:15;;;;;;;24.73;8.10;;;;;;;;;;5011049;28;20471;-65
2022/01/06 13:42:41;;;;;;;33.90;9.88;;;;;;;;;;5010786;28;20352;-65
2022/01/06 13:45:21;;;;;;;27.63;9.15;;;;;;;;;;5010667;28;20037;-65
2022/01/06 13:47:56;;;;;;;29.83;8.13;;;;;;;;;;5009439;28;20029;-65
2022/01/06 13:53:25;;;;;;;41.30;11.15;;;;;;;;;;5010519;28;20076;-65
2022/01/06 13:55:59;;;;;;;45.50;11.43;;;;;;;;;;5011145;28;20022;-65
2022/01/06 13:58:24;;;;;;;39.00;11.07;;;;;;;;;;5007970;28;20017;-65
2022/01/06 14:00:53;;;;;;;33.25;9.13;;;;;;;;;;5010492;28;20356;-65
2022/01/06 14:03:18;;;;;;;35.25;11.30;;;;;;;;;;5010482;28;20113;-66
2022/01/06 14:05:44;;;;;;;27.23;7.53;;;;;;;;;;5010065;28;20102;-66
2022/01/06 14:08:09;;;;;;;31.38;8.07;;;;;;;;;;5008499;28;20014;-66
2022/01/06 14:10:34;;;;;;;40.10;9.77;;;;;;;;;;5010313;28;20052;-66
2022/01/06 14:12:59;;;;;;;44.13;9.98;;;;;;;;;;5010700;28;20041;-66
2022/01/06 14:15:25;;;;;;;32.80;9.98;;;;;;;;;;5010167;28;20395;-66
2022/01/06 14:17:50;;;;;;;41.55;9.30;;;;;;;;;;5009993;28;20091;-66
2022/01/06 14:20:15;;;;;;;40.40;9.52;;;;;;;;;;5010177;28;20021;-66
2022/01/06 14:22:40;;;;;;;10.77;4.28;;;;;;;;;;5010594;28;20068;-66
2022/01/06 14:25:05;;;;;;;49.72;11.32;;;;;;;;;;5010177;28;20026;-66
2022/01/06 14:27:31;;;;;;;37.03;11.65;;;;;;;;;;5009961;28;20390;-66
2022/01/06 14:29:56;;;;;;;47.08;10.18;;;;;;;;;;5008637;28;20578;-66
2022/01/06 14:32:21;;;;;;;42.00;10.15;;;;;;;;;;5010392;28;20131;-66
2022/01/06 14:34:46;;;;;;;34.43;10.37;;;;;;;;;;5009785;28;20033;-66